Woody Richerson — WDF9621 — position and weather

sailwx.info

Track history (hours):
 
Tides and Currents Weather Stations Pressure Air Temp Water Temp Dewpoint Dewpoint Depression Visibility Wind Speed Wind Dir Waves Ship Positions

Woody Richerson

Owner: Florida Marine, LLC, Mandeville, LA. More information available from US FCC via Universal Licensing System and Coast Guard Vessel Documentation Center.

Last reported at 2017-Jan-03 19:33 UTC. Time now 2017-Jan-17 19:20 UTC.
Position N 29°57' W 090°08'.
Warning: this ship's position is 13 days out of date.

Length 27 m.

Type: Other ship. MMSI: 367507070.

Date/timePositionNaut miles runAvg speedWind from/ knotsBaromVisibWave heightAir tempDewpointWater temp
2017-Jan-03 19:33N 29°57' W 090°08'6 6.0
2017-Jan-03 18:32N 29°58' W 090°15'8 0.5
2017-Jan-03 02:07N 29°60' W 090°25'0 0.0
2017-Jan-03 01:33N 29°60' W 090°25'6 0.2
2017-Jan-02 00:33N 29°57' W 090°18'5 4.6
2017-Jan-01 23:30N 29°56' W 090°13'4 3.9
2017-Jan-01 22:32N 29°56' W 090°08'7 1.4
2017-Jan-01 17:17N 29°60' W 090°01'0 0.0
2017-Jan-01 16:21N 29°60' W 090°01'0 0.0
2017-Jan-01 15:33N 29°60' W 090°01'0 0.0
2017-Jan-01 14:30N 29°60' W 090°01'0 0.0
2017-Jan-01 13:30N 29°60' W 090°01'0 0.0
2017-Jan-01 12:32N 29°60' W 090°01'0 0.0
2017-Jan-01 11:32N 29°60' W 090°01'0 0.0
2017-Jan-01 10:33N 29°60' W 090°01'0 0.0
2017-Jan-01 09:28N 29°60' W 090°01'0 0.0
2017-Jan-01 08:08N 29°60' W 090°01'0 0.0
2017-Jan-01 07:08N 29°60' W 090°01'0 0.0
2017-Jan-01 06:25N 29°60' W 090°01'0 0.0
2017-Jan-01 05:23N 29°60' W 090°01'0 0.0
2017-Jan-01 04:33N 29°60' W 090°01'0 0.0
2017-Jan-01 03:33N 29°60' W 090°01'0 0.0
2017-Jan-01 02:32N 29°60' W 090°01'0 0.0
2017-Jan-01 01:31N 29°60' W 090°01'0 0.0
2017-Jan-01 00:26N 29°60' W 090°01'0 0.0
2016-Dec-31 22:26N 29°60' W 090°01'0 0.0
2016-Dec-31 21:32N 29°60' W 090°01'  
Track history (hours):
 
Tides and Currents Weather Stations Pressure Air Temp Water Temp Dewpoint Dewpoint Depression Visibility Wind Speed Wind Dir Waves Ship Positions

Woody Richerson

Owner: Florida Marine, LLC, Mandeville, LA. More information available from US FCC via Universal Licensing System and Coast Guard Vessel Documentation Center.

Last reported at 2017-Jan-03 19:33 UTC. Time now 2017-Jan-17 19:20 UTC.
Position N 29°57' W 090°08'.
Warning: this ship's position is 13 days out of date.

Length 27 m.

Type: Other ship. MMSI: 367507070.

Date/timePositionNaut miles runAvg speedWind from/ knotsBaromVisibWave heightAir tempDewpointWater temp
2017-Jan-03 19:33N 29°57' W 090°08'6 6.0
2017-Jan-03 18:32N 29°58' W 090°15'8 0.5
2017-Jan-03 02:07N 29°60' W 090°25'0 0.0
2017-Jan-03 01:33N 29°60' W 090°25'6 0.2
2017-Jan-02 00:33N 29°57' W 090°18'5 4.6
2017-Jan-01 23:30N 29°56' W 090°13'4 3.9
2017-Jan-01 22:32N 29°56' W 090°08'7 1.4
2017-Jan-01 17:17N 29°60' W 090°01'0 0.0
2017-Jan-01 16:21N 29°60' W 090°01'0 0.0
2017-Jan-01 15:33N 29°60' W 090°01'0 0.0
2017-Jan-01 14:30N 29°60' W 090°01'0 0.0
2017-Jan-01 13:30N 29°60' W 090°01'0 0.0
2017-Jan-01 12:32N 29°60' W 090°01'0 0.0
2017-Jan-01 11:32N 29°60' W 090°01'0 0.0
2017-Jan-01 10:33N 29°60' W 090°01'0 0.0
2017-Jan-01 09:28N 29°60' W 090°01'0 0.0
2017-Jan-01 08:08N 29°60' W 090°01'0 0.0
2017-Jan-01 07:08N 29°60' W 090°01'0 0.0
2017-Jan-01 06:25N 29°60' W 090°01'0 0.0
2017-Jan-01 05:23N 29°60' W 090°01'0 0.0
2017-Jan-01 04:33N 29°60' W 090°01'0 0.0
2017-Jan-01 03:33N 29°60' W 090°01'0 0.0
2017-Jan-01 02:32N 29°60' W 090°01'0 0.0
2017-Jan-01 01:31N 29°60' W 090°01'0 0.0
2017-Jan-01 00:26N 29°60' W 090°01'0 0.0
2016-Dec-31 22:26N 29°60' W 090°01'0 0.0
2016-Dec-31 21:32N 29°60' W 090°01'  

Dump ship's entire track history